createdAt,value
2022-08-21T00:01:41.661Z,18.05
2022-08-21T00:04:09.685Z,17.87
2022-08-21T00:06:37.091Z,18.32
2022-08-21T00:09:07.252Z,18.24
2022-08-21T00:11:36.205Z,18.13
2022-08-21T00:14:05.263Z,18.24
2022-08-21T00:16:32.048Z,18.07
2022-08-21T00:18:58.859Z,17.92
2022-08-21T00:21:26.356Z,17.92
2022-08-21T00:23:53.804Z,18.02
2022-08-21T00:26:20.817Z,18.24
2022-08-21T00:28:49.966Z,18.22
2022-08-21T00:31:17.721Z,18.45
2022-08-21T00:33:45.259Z,18.25
2022-08-21T00:36:12.612Z,18.09
2022-08-21T00:38:39.484Z,18.03
2022-08-21T00:41:29.865Z,18.17
2022-08-21T00:43:56.456Z,18.10
2022-08-21T00:46:28.158Z,18.29
2022-08-21T00:48:58.990Z,18.41
2022-08-21T00:51:59.235Z,18.61
2022-08-21T00:54:28.284Z,18.63
2022-08-21T00:57:00.698Z,18.64
2022-08-21T00:59:28.773Z,18.48
2022-08-21T01:01:55.599Z,18.67
2022-08-21T01:04:24.124Z,18.68
2022-08-21T01:06:52.525Z,18.54
2022-08-21T01:09:20.528Z,18.51
2022-08-21T01:11:47.942Z,18.39
2022-08-21T01:14:15.737Z,18.37
2022-08-21T01:16:49.240Z,18.57
2022-08-21T01:19:18.056Z,18.61
2022-08-21T01:21:45.078Z,18.48
2022-08-21T01:24:13.168Z,18.47
2022-08-21T01:26:42.169Z,18.58
2022-08-21T01:29:29.949Z,18.58
2022-08-21T01:31:56.811Z,18.51
2022-08-21T01:34:23.761Z,18.39
2022-08-21T01:36:50.519Z,18.53
2022-08-21T01:39:17.442Z,18.41
2022-08-21T01:41:44.514Z,18.61
2022-08-21T01:44:11.720Z,18.58
2022-08-21T01:46:38.612Z,18.51
2022-08-21T01:49:06.349Z,18.57
2022-08-21T01:51:33.329Z,18.61
2022-08-21T01:54:00.213Z,18.57
2022-08-21T01:56:29.011Z,18.52
2022-08-21T01:58:55.918Z,18.54
2022-08-21T02:01:22.725Z,18.60
2022-08-21T02:03:49.480Z,18.38
2022-08-21T02:06:18.853Z,18.65
2022-08-21T02:08:46.339Z,18.68
2022-08-21T02:11:13.167Z,18.55
2022-08-21T02:13:40.259Z,18.57
2022-08-21T02:16:07.845Z,18.59
2022-08-21T02:18:35.219Z,18.53
2022-08-21T02:21:02.493Z,18.65
2022-08-21T02:23:29.286Z,18.61
2022-08-21T02:25:58.930Z,18.65
2022-08-21T02:28:25.488Z,18.67
2022-08-21T02:30:55.918Z,18.66
2022-08-21T02:33:24.068Z,18.56
2022-08-21T02:35:51.572Z,18.54
2022-08-21T02:38:23.068Z,18.64
2022-08-21T02:40:52.447Z,18.61
2022-08-21T02:43:21.197Z,18.61
2022-08-21T02:45:49.196Z,18.63
2022-08-21T02:48:19.381Z,18.59
2022-08-21T02:50:49.556Z,18.64
2022-08-21T02:53:17.779Z,18.54
2022-08-21T02:55:46.577Z,18.62
2022-08-21T02:58:14.145Z,18.54
2022-08-21T03:00:41.562Z,18.52
2022-08-21T03:03:08.776Z,18.49
2022-08-21T03:05:38.657Z,18.44
2022-08-21T03:08:11.456Z,18.26
2022-08-21T03:10:40.832Z,18.53
2022-08-21T03:13:08.662Z,18.36
2022-08-21T03:15:35.464Z,18.37
2022-08-21T03:18:03.338Z,18.45
2022-08-21T03:20:33.309Z,18.17
2022-08-21T03:23:00.906Z,18.35
2022-08-21T03:25:40.631Z,18.22
2022-08-21T03:28:13.243Z,18.20
2022-08-21T03:30:45.924Z,18.13
2022-08-21T03:33:15.202Z,18.13
2022-08-21T03:35:47.301Z,18.27
2022-08-21T03:38:14.345Z,18.22
2022-08-21T03:40:43.149Z,18.21
2022-08-21T03:43:10.573Z,18.17
2022-08-21T03:45:38.757Z,18.17
2022-08-21T03:48:08.086Z,18.07
2022-08-21T03:50:41.016Z,17.86
2022-08-21T03:53:17.482Z,18.22
2022-08-21T03:55:47.830Z,18.14
2022-08-21T03:58:17.752Z,18.24
2022-08-21T04:00:49.943Z,18.23
2022-08-21T04:03:17.172Z,17.87
2022-08-21T04:05:46.293Z,18.21
2022-08-21T04:08:13.592Z,18.17
2022-08-21T04:10:41.141Z,18.15
2022-08-21T04:13:09.708Z,18.03
2022-08-21T04:15:37.379Z,18.15
2022-08-21T04:18:04.662Z,18.18
2022-08-21T04:20:31.861Z,18.11
2022-08-21T04:22:58.745Z,18.01
2022-08-21T04:25:29.688Z,18.17
2022-08-21T04:27:57.004Z,18.06
2022-08-21T04:30:28.518Z,18.12
2022-08-21T04:32:57.700Z,18.15
2022-08-21T04:35:28.169Z,18.15
2022-08-21T04:37:55.005Z,18.21
2022-08-21T04:40:23.503Z,18.14
2022-08-21T04:42:53.524Z,18.16
2022-08-21T04:45:32.779Z,18.37
2022-08-21T04:48:01.851Z,18.29
2022-08-21T04:50:46.347Z,18.38
2022-08-21T04:53:17.677Z,18.16
2022-08-21T04:55:45.408Z,18.30
2022-08-21T04:58:14.986Z,18.23
2022-08-21T05:00:42.561Z,18.17
2022-08-21T05:03:11.892Z,18.26
2022-08-21T05:05:40.440Z,18.12
2022-08-21T05:08:10.217Z,18.16
2022-08-21T05:10:36.991Z,18.37
2022-08-21T05:13:04.333Z,18.22
2022-08-21T05:15:31.670Z,18.25
2022-08-21T05:18:01.352Z,18.20
2022-08-21T05:20:29.032Z,18.27
2022-08-21T05:22:55.872Z,18.14
2022-08-21T05:25:23.894Z,18.23
2022-08-21T05:27:52.353Z,18.13
2022-08-21T05:30:20.072Z,18.25
2022-08-21T05:32:48.515Z,18.15
2022-08-21T05:35:16.095Z,18.26
2022-08-21T05:37:42.947Z,18.29
2022-08-21T05:40:22.280Z,18.25
2022-08-21T05:42:54.031Z,18.29
2022-08-21T05:45:34.691Z,18.38
2022-08-21T05:48:12.872Z,18.16
2022-08-21T05:50:40.253Z,18.34
2022-08-21T05:53:08.025Z,18.39
2022-08-21T05:55:36.507Z,18.26
2022-08-21T05:58:03.765Z,18.47
2022-08-21T06:00:30.893Z,18.61
2022-08-21T06:02:57.845Z,18.69
2022-08-21T06:05:25.275Z,18.91
2022-08-21T06:08:05.088Z,18.91
2022-08-21T06:10:32.300Z,18.78
2022-08-21T06:12:59.178Z,18.73
2022-08-21T06:15:27.425Z,18.92
2022-08-21T06:17:55.250Z,18.91
2022-08-21T06:20:22.877Z,18.83
2022-08-21T06:22:50.208Z,18.97
2022-08-21T06:25:17.019Z,18.98
2022-08-21T06:27:43.828Z,18.90
2022-08-21T06:30:10.927Z,18.84
2022-08-21T06:32:38.117Z,18.94
2022-08-21T06:35:07.142Z,19.02
2022-08-21T06:37:34.054Z,19.26
2022-08-21T06:40:01.157Z,19.20
2022-08-21T06:42:29.219Z,19.20
2022-08-21T06:44:57.967Z,19.48
2022-08-21T06:47:24.872Z,19.53
2022-08-21T06:49:51.694Z,19.50
2022-08-21T06:52:18.467Z,19.77
2022-08-21T06:54:45.364Z,19.91
2022-08-21T06:57:12.299Z,20.05
2022-08-21T06:59:39.236Z,20.03
2022-08-21T07:02:06.084Z,19.90
2022-08-21T07:04:33.004Z,19.69
2022-08-21T07:06:59.848Z,19.70
2022-08-21T07:09:26.644Z,19.85
2022-08-21T07:11:56.057Z,19.76
2022-08-21T07:14:23.719Z,19.68
2022-08-21T07:16:52.116Z,19.73
2022-08-21T07:19:19.332Z,19.44
2022-08-21T07:21:46.443Z,19.41
2022-08-21T07:24:13.579Z,19.15
2022-08-21T07:26:41.179Z,19.33
2022-08-21T07:29:08.123Z,19.42
2022-08-21T07:31:34.863Z,19.28
2022-08-21T07:34:01.694Z,19.33
2022-08-21T07:36:28.564Z,19.31
2022-08-21T07:38:55.416Z,19.40
2022-08-21T07:41:25.749Z,19.41
2022-08-21T07:43:53.321Z,19.48
2022-08-21T07:46:20.871Z,19.46
2022-08-21T07:48:48.228Z,19.64
2022-08-21T07:51:17.640Z,19.66
2022-08-21T07:53:50.331Z,19.80
2022-08-21T07:56:17.262Z,19.64
2022-08-21T07:58:44.033Z,19.71
2022-08-21T08:01:11.395Z,19.82
2022-08-21T08:03:38.250Z,19.72
2022-08-21T08:06:05.879Z,19.85
2022-08-21T08:08:33.235Z,19.73
2022-08-21T08:11:01.084Z,19.82
2022-08-21T08:13:27.832Z,19.81
2022-08-21T08:15:54.726Z,19.83
2022-08-21T08:18:21.596Z,19.76
2022-08-21T08:20:48.336Z,19.80
2022-08-21T08:23:16.131Z,19.83
2022-08-21T08:25:43.207Z,19.92
2022-08-21T08:28:17.377Z,19.86
2022-08-21T08:30:46.268Z,19.70
2022-08-21T08:33:14.421Z,19.78
2022-08-21T08:35:43.590Z,19.72
2022-08-21T08:38:11.051Z,19.76
2022-08-21T08:40:45.495Z,19.76
2022-08-21T08:43:15.865Z,19.62
2022-08-21T08:45:47.782Z,19.69
2022-08-21T08:48:32.440Z,19.70
2022-08-21T08:51:02.640Z,19.68
2022-08-21T08:53:50.551Z,19.90
2022-08-21T08:56:27.270Z,19.90
2022-08-21T08:58:57.453Z,19.84
2022-08-21T09:01:24.215Z,20.01
2022-08-21T09:03:53.405Z,20.06
2022-08-21T09:06:33.637Z,20.21
2022-08-21T09:09:25.025Z,20.19
2022-08-21T09:12:12.772Z,20.13
2022-08-21T09:15:03.496Z,20.05
2022-08-21T09:18:11.811Z,19.93
2022-08-21T09:21:04.187Z,20.18
2022-08-21T09:24:05.999Z,20.01
2022-08-21T09:27:03.546Z,19.78
2022-08-21T09:29:34.278Z,19.75
2022-08-21T09:32:01.105Z,19.76
2022-08-21T09:34:30.999Z,19.69
2022-08-21T09:36:59.127Z,19.44
2022-08-21T09:39:42.626Z,19.67
2022-08-21T09:42:12.455Z,19.55
2022-08-21T09:44:44.632Z,19.70
2022-08-21T09:47:16.072Z,19.67
2022-08-21T09:49:44.378Z,19.48
2022-08-21T09:52:26.165Z,19.63
2022-08-21T09:54:56.457Z,19.47
2022-08-21T09:57:50.472Z,19.50
2022-08-21T10:00:27.063Z,19.19
2022-08-21T10:02:54.074Z,19.39
2022-08-21T10:05:25.362Z,19.32
2022-08-21T10:07:53.041Z,18.88
2022-08-21T10:10:29.784Z,18.92
2022-08-21T10:13:02.512Z,19.24
2022-08-21T10:15:41.314Z,19.15
2022-08-21T10:18:17.201Z,19.32
2022-08-21T10:20:58.069Z,19.03
2022-08-21T10:24:01.639Z,19.00
2022-08-21T10:26:41.583Z,19.01
2022-08-21T10:29:14.588Z,18.82
2022-08-21T10:32:22.517Z,19.20
2022-08-21T10:34:56.308Z,19.80
2022-08-21T10:37:22.861Z,19.95
2022-08-21T10:40:23.520Z,19.89
2022-08-21T10:43:18.344Z,20.01
2022-08-21T10:46:06.530Z,20.01
2022-08-21T10:48:36.080Z,20.11
2022-08-21T10:51:29.546Z,20.13
2022-08-21T10:54:11.868Z,20.32
2022-08-21T10:56:42.400Z,20.36
2022-08-21T10:59:38.551Z,20.53
2022-08-21T11:02:23.584Z,20.64
2022-08-21T11:04:58.908Z,20.65
2022-08-21T11:07:49.245Z,20.74
2022-08-21T11:10:25.730Z,20.61
2022-08-21T11:13:12.894Z,20.81
2022-08-21T11:15:54.120Z,20.80
2022-08-21T11:18:32.110Z,20.82
2022-08-21T11:21:17.149Z,20.60
2022-08-21T11:24:06.843Z,20.32
2022-08-21T11:26:44.241Z,20.45
2022-08-21T11:29:19.972Z,20.49
2022-08-21T11:31:57.701Z,20.39
2022-08-21T11:34:39.729Z,20.45
2022-08-21T11:37:24.253Z,20.50
2022-08-21T11:40:21.444Z,20.26
2022-08-21T11:42:54.409Z,20.37
2022-08-21T11:45:50.979Z,20.22
2022-08-21T11:48:41.473Z,20.21
2022-08-21T11:51:22.401Z,20.21
2022-08-21T11:53:56.297Z,20.30
2022-08-21T11:56:31.116Z,19.80
2022-08-21T11:59:06.448Z,20.70
2022-08-21T12:01:43.195Z,20.42
2022-08-21T12:04:28.893Z,20.76
2022-08-21T12:06:56.397Z,20.79
2022-08-21T12:09:26.136Z,20.80
2022-08-21T12:12:12.789Z,20.69
2022-08-21T12:14:45.357Z,20.64
2022-08-21T12:17:20.712Z,20.64
2022-08-21T12:19:59.524Z,20.49
2022-08-21T12:22:39.488Z,20.65
2022-08-21T12:25:12.220Z,20.69
2022-08-21T12:27:51.166Z,20.54
2022-08-21T12:30:38.677Z,20.63
2022-08-21T12:33:23.235Z,20.67
2022-08-21T12:35:52.571Z,20.75
2022-08-21T12:38:46.062Z,20.98
2022-08-21T12:41:26.704Z,20.94
2022-08-21T12:44:00.004Z,20.96
2022-08-21T12:46:51.346Z,20.81
2022-08-21T12:49:27.208Z,20.76
2022-08-21T12:52:03.706Z,20.72
2022-08-21T12:54:33.476Z,20.54
2022-08-21T12:57:06.110Z,20.69
2022-08-21T12:59:33.820Z,20.76
2022-08-21T13:02:05.413Z,20.84
2022-08-21T13:04:39.945Z,21.00
2022-08-21T13:07:15.104Z,20.88
2022-08-21T13:09:51.802Z,20.92
2022-08-21T13:12:21.448Z,21.15
2022-08-21T13:14:49.690Z,20.92
2022-08-21T13:17:25.631Z,20.87
2022-08-21T13:19:58.991Z,20.91
2022-08-21T13:22:33.255Z,20.84
2022-08-21T13:25:05.893Z,20.84
2022-08-21T13:27:35.175Z,20.96
2022-08-21T13:30:15.208Z,20.92
2022-08-21T13:32:46.375Z,21.12
2022-08-21T13:35:27.128Z,20.96
2022-08-21T13:37:56.107Z,21.09
2022-08-21T13:40:31.448Z,21.02
2022-08-21T13:42:59.174Z,20.98
2022-08-21T13:45:33.020Z,20.98
2022-08-21T13:48:06.115Z,21.15
2022-08-21T13:50:36.335Z,21.25
2022-08-21T13:53:05.535Z,21.42
2022-08-21T13:55:44.202Z,21.30
2022-08-21T13:58:12.629Z,21.43
2022-08-21T14:00:51.706Z,21.14
2022-08-21T14:03:38.027Z,21.06
2022-08-21T14:06:19.495Z,20.97
2022-08-21T14:08:56.368Z,21.25
2022-08-21T14:11:23.325Z,21.06
2022-08-21T14:14:13.198Z,21.21
2022-08-21T14:16:46.692Z,21.42
2022-08-21T14:19:26.002Z,21.59
2022-08-21T14:21:53.031Z,21.34
2022-08-21T14:24:32.283Z,21.56
2022-08-21T14:27:07.350Z,21.24
2022-08-21T14:29:38.259Z,21.45
2022-08-21T14:32:25.315Z,21.33
2022-08-21T14:34:54.793Z,21.49
2022-08-21T14:37:22.569Z,21.53
2022-08-21T14:39:49.338Z,21.25
2022-08-21T14:42:16.220Z,21.05
2022-08-21T14:44:43.308Z,21.29
2022-08-21T14:47:10.767Z,21.11
2022-08-21T14:49:37.635Z,20.86
2022-08-21T14:52:04.673Z,20.98
2022-08-21T14:54:32.801Z,21.17
2022-08-21T14:57:02.794Z,21.51
2022-08-21T14:59:30.488Z,21.61
2022-08-21T15:01:57.359Z,21.64
2022-08-21T15:04:24.212Z,21.63
2022-08-21T15:06:51.119Z,21.55
2022-08-21T15:09:18.089Z,21.75
2022-08-21T15:11:44.898Z,21.88
2022-08-21T15:14:19.547Z,21.96
2022-08-21T15:16:46.602Z,21.95
2022-08-21T15:19:13.342Z,22.03
2022-08-21T15:21:40.076Z,22.02
2022-08-21T15:24:06.927Z,22.03
2022-08-21T15:26:33.739Z,21.83
2022-08-21T15:29:00.884Z,21.70
2022-08-21T15:31:28.651Z,21.58
2022-08-21T15:33:56.217Z,21.26
2022-08-21T15:36:23.274Z,21.40
2022-08-21T15:38:50.447Z,21.16
2022-08-21T15:41:19.189Z,20.95
2022-08-21T15:43:51.625Z,20.98
2022-08-21T15:46:20.896Z,21.02
2022-08-21T15:48:48.398Z,21.10
2022-08-21T15:51:17.261Z,21.17
2022-08-21T15:53:44.489Z,20.67
2022-08-21T15:56:23.627Z,20.92
2022-08-21T15:58:53.747Z,20.86
2022-08-21T16:01:22.749Z,20.86
2022-08-21T16:03:53.696Z,20.89
2022-08-21T16:06:37.956Z,20.86
2022-08-21T16:09:07.336Z,20.86
2022-08-21T16:11:34.212Z,20.37
2022-08-21T16:14:00.997Z,20.49
2022-08-21T16:16:29.855Z,20.53
2022-08-21T16:18:58.639Z,20.39
2022-08-21T16:21:25.612Z,20.64
2022-08-21T16:23:52.508Z,20.41
2022-08-21T16:26:19.304Z,20.49
2022-08-21T16:28:50.308Z,20.40
2022-08-21T16:31:17.452Z,20.43
2022-08-21T16:33:49.829Z,20.47
2022-08-21T16:36:18.054Z,20.34
2022-08-21T16:38:44.928Z,20.32
2022-08-21T16:41:15.243Z,20.25
2022-08-21T16:43:43.354Z,20.27
2022-08-21T16:46:12.332Z,20.17
2022-08-21T16:48:40.531Z,20.05
2022-08-21T16:51:07.452Z,20.18
2022-08-21T16:53:34.571Z,20.15
2022-08-21T16:56:01.692Z,19.98
2022-08-21T16:58:34.856Z,19.90
2022-08-21T17:01:06.947Z,20.09
2022-08-21T17:03:40.827Z,19.88
2022-08-21T17:06:09.148Z,19.77
2022-08-21T17:08:36.886Z,19.57
2022-08-21T17:11:06.015Z,19.29
2022-08-21T17:13:33.093Z,19.21
2022-08-21T17:16:00.010Z,19.20
2022-08-21T17:18:28.006Z,19.57
2022-08-21T17:20:55.157Z,19.08
2022-08-21T17:23:22.035Z,19.41
2022-08-21T17:25:52.735Z,19.26
2022-08-21T17:28:26.644Z,19.79
2022-08-21T17:30:55.917Z,19.86
2022-08-21T17:33:22.776Z,19.72
2022-08-21T17:35:49.528Z,19.76
2022-08-21T17:38:16.288Z,19.40
2022-08-21T17:40:43.544Z,19.65
2022-08-21T17:43:13.686Z,19.59
2022-08-21T17:45:45.008Z,19.55
2022-08-21T17:48:11.808Z,19.42
2022-08-21T17:50:39.689Z,19.39
2022-08-21T17:53:06.904Z,19.17
2022-08-21T17:55:34.916Z,19.38
2022-08-21T17:58:03.706Z,19.07
2022-08-21T18:00:31.961Z,19.25
2022-08-21T18:03:18.549Z,19.41
2022-08-21T18:05:47.968Z,19.59
2022-08-21T18:08:15.379Z,19.59
2022-08-21T18:10:44.452Z,19.39
2022-08-21T18:13:14.559Z,19.46
2022-08-21T18:15:46.229Z,19.59
2022-08-21T18:18:13.289Z,19.53
2022-08-21T18:20:40.184Z,19.56
2022-08-21T18:23:07.232Z,19.42
2022-08-21T18:25:34.948Z,19.27
2022-08-21T18:28:07.488Z,19.43
2022-08-21T18:30:40.206Z,19.24
2022-08-21T18:33:08.047Z,19.32
2022-08-21T18:35:35.335Z,19.19
2022-08-21T18:38:02.162Z,18.85
2022-08-21T18:40:30.225Z,18.85
2022-08-21T18:42:57.291Z,18.90
2022-08-21T18:45:24.703Z,18.85
2022-08-21T18:47:54.008Z,18.92
2022-08-21T18:50:25.166Z,18.68
2022-08-21T18:52:54.527Z,18.69
2022-08-21T18:55:24.477Z,18.55
2022-08-21T18:57:52.711Z,18.76
2022-08-21T19:00:24.271Z,18.69
2022-08-21T19:02:51.578Z,18.49
2022-08-21T19:05:20.391Z,18.61
2022-08-21T19:07:50.834Z,18.45
2022-08-21T19:10:27.831Z,18.33
2022-08-21T19:12:59.503Z,18.45
2022-08-21T19:15:26.795Z,18.27
2022-08-21T19:17:54.466Z,18.29
2022-08-21T19:20:32.793Z,18.27
2022-08-21T19:23:00.439Z,18.33
2022-08-21T19:25:33.408Z,18.31
2022-08-21T19:28:02.927Z,18.27
2022-08-21T19:30:30.926Z,18.25
2022-08-21T19:32:58.055Z,18.38
2022-08-21T19:35:26.939Z,18.40
2022-08-21T19:37:54.072Z,18.08
2022-08-21T19:40:22.218Z,18.25
2022-08-21T19:42:49.343Z,18.21
2022-08-21T19:45:16.444Z,18.09
2022-08-21T19:47:48.580Z,18.02
2022-08-21T19:50:17.816Z,18.12
2022-08-21T19:52:51.627Z,18.07
2022-08-21T19:55:19.227Z,18.10
2022-08-21T19:57:46.267Z,18.14
2022-08-21T20:00:14.062Z,18.23
2022-08-21T20:02:47.835Z,18.09
2022-08-21T20:05:16.026Z,18.24
2022-08-21T20:07:46.108Z,18.17
2022-08-21T20:10:13.185Z,18.23
2022-08-21T20:12:41.157Z,18.05
2022-08-21T20:15:09.387Z,18.06
2022-08-21T20:17:38.827Z,17.94
2022-08-21T20:20:06.048Z,17.87
2022-08-21T20:22:33.218Z,17.70
2022-08-21T20:24:59.976Z,17.74
2022-08-21T20:27:28.373Z,17.70
2022-08-21T20:29:55.801Z,17.82
2022-08-21T20:32:22.771Z,17.74
2022-08-21T20:34:53.785Z,17.89
2022-08-21T20:37:35.824Z,17.80
2022-08-21T20:40:11.186Z,17.80
2022-08-21T20:42:44.846Z,17.84
2022-08-21T20:45:18.591Z,17.84
2022-08-21T20:47:45.665Z,17.74
2022-08-21T20:50:17.939Z,17.70
2022-08-21T20:52:49.728Z,17.84
2022-08-21T20:55:29.126Z,18.08
2022-08-21T20:58:06.883Z,17.88
2022-08-21T21:00:38.971Z,17.94
2022-08-21T21:03:16.911Z,17.98
2022-08-21T21:05:50.368Z,17.91
2022-08-21T21:08:40.179Z,18.16
2022-08-21T21:11:18.388Z,17.93
2022-08-21T21:13:50.002Z,18.02
2022-08-21T21:16:27.368Z,18.01
2022-08-21T21:19:13.622Z,17.74
2022-08-21T21:21:59.895Z,18.11
2022-08-21T21:24:41.763Z,18.03
2022-08-21T21:27:13.536Z,17.88
2022-08-21T21:29:57.004Z,17.95
2022-08-21T21:32:23.823Z,17.83
2022-08-21T21:34:51.269Z,17.69
2022-08-21T21:37:33.888Z,17.78
2022-08-21T21:40:22.926Z,17.78
2022-08-21T21:43:02.037Z,17.79
2022-08-21T21:45:37.907Z,17.43
2022-08-21T21:48:22.844Z,17.83
2022-08-21T21:51:00.652Z,17.84
2022-08-21T21:53:46.656Z,17.87
2022-08-21T21:56:35.805Z,17.81
2022-08-21T21:59:29.821Z,17.92
2022-08-21T22:02:10.661Z,17.86
2022-08-21T22:04:52.790Z,17.95
2022-08-21T22:07:29.283Z,17.96
2022-08-21T22:10:32.082Z,17.96
2022-08-21T22:13:26.301Z,18.02
2022-08-21T22:15:54.527Z,17.97
2022-08-21T22:18:26.539Z,18.05
2022-08-21T22:20:59.876Z,18.23
2022-08-21T22:23:38.883Z,18.28
2022-08-21T22:26:09.544Z,18.25
2022-08-21T22:28:41.849Z,18.49
2022-08-21T22:31:25.520Z,18.47
2022-08-21T22:34:18.040Z,18.45
2022-08-21T22:36:51.651Z,18.28
2022-08-21T22:39:33.101Z,18.36
2022-08-21T22:42:22.516Z,18.22
2022-08-21T22:44:58.765Z,18.23
2022-08-21T22:47:39.454Z,18.13
2022-08-21T22:50:27.011Z,18.21
2022-08-21T22:53:06.487Z,18.07
2022-08-21T22:55:33.224Z,18.12
2022-08-21T22:58:23.550Z,18.12
2022-08-21T23:00:57.527Z,18.00
2022-08-21T23:03:25.024Z,18.06
2022-08-21T23:05:53.028Z,17.78
2022-08-21T23:08:37.181Z,17.81
2022-08-21T23:11:17.690Z,17.95
2022-08-21T23:13:48.431Z,17.91
2022-08-21T23:16:47.358Z,17.74
2022-08-21T23:19:38.069Z,17.60
2022-08-21T23:22:15.523Z,17.65
2022-08-21T23:25:05.051Z,17.57
2022-08-21T23:27:39.053Z,17.51
2022-08-21T23:30:18.818Z,17.38
2022-08-21T23:33:25.834Z,17.50
2022-08-21T23:36:17.912Z,17.57
2022-08-21T23:39:11.505Z,17.56
2022-08-21T23:42:06.192Z,17.75
2022-08-21T23:45:14.094Z,17.84
2022-08-21T23:50:58.184Z,17.82
2022-08-21T23:53:52.952Z,17.85
2022-08-21T23:56:38.108Z,17.77
2022-08-21T23:59:42.979Z,17.72
